createdAt,value
2023-04-03T00:00:42.299Z,76.70
2023-04-03T00:03:09.241Z,76.70
2023-04-03T00:05:36.386Z,76.80
2023-04-03T00:08:03.189Z,76.80
2023-04-03T00:10:29.984Z,76.80
2023-04-03T00:12:57.014Z,76.80
2023-04-03T00:15:23.724Z,76.90
2023-04-03T00:17:50.606Z,76.90
2023-04-03T00:20:17.653Z,76.90
2023-04-03T00:22:44.424Z,76.90
2023-04-03T00:25:11.151Z,76.90
2023-04-03T00:27:40.212Z,77.00
2023-04-03T00:30:08.978Z,77.00
2023-04-03T00:32:35.994Z,77.10
2023-04-03T00:35:02.895Z,77.10
2023-04-03T00:37:29.625Z,77.10
2023-04-03T00:39:56.555Z,77.20
2023-04-03T00:42:23.440Z,77.20
2023-04-03T00:44:50.343Z,77.20
2023-04-03T00:47:18.952Z,77.30
2023-04-03T00:49:46.590Z,77.30
2023-04-03T00:52:17.230Z,77.30
2023-04-03T00:54:46.371Z,77.50
2023-04-03T00:57:13.653Z,77.50
2023-04-03T00:59:45.611Z,77.50
2023-04-03T01:02:12.378Z,77.50
2023-04-03T01:04:44.584Z,77.70
2023-04-03T01:07:22.225Z,77.60
2023-04-03T01:09:52.604Z,77.60
2023-04-03T01:12:23.940Z,77.60
2023-04-03T01:15:02.996Z,77.60
2023-04-03T01:17:41.902Z,77.70
2023-04-03T01:20:26.454Z,77.80
2023-04-03T01:23:11.973Z,77.80
2023-04-03T01:25:44.684Z,77.90
2023-04-03T01:28:17.028Z,77.90
2023-04-03T01:31:06.350Z,77.90
2023-04-03T01:33:33.331Z,77.90
2023-04-03T01:36:00.310Z,78.00
2023-04-03T01:38:27.270Z,78.00
2023-04-03T01:40:53.944Z,78.10
2023-04-03T01:43:20.867Z,78.10
2023-04-03T01:45:47.761Z,78.10
2023-04-03T01:48:14.542Z,79.10
2023-04-03T01:50:41.355Z,78.30
2023-04-03T01:53:08.242Z,78.30
2023-04-03T01:55:35.072Z,78.30
2023-04-03T01:58:01.820Z,78.30
2023-04-03T02:00:28.538Z,78.40
2023-04-03T02:02:55.450Z,78.40
2023-04-03T02:05:22.412Z,78.50
2023-04-03T02:07:49.421Z,78.60
2023-04-03T02:10:16.382Z,78.60
2023-04-03T02:12:43.115Z,78.60
2023-04-03T02:15:10.291Z,78.70
2023-04-03T02:17:37.267Z,78.80
2023-04-03T02:20:04.909Z,78.80
2023-04-03T02:22:31.861Z,78.90
2023-04-03T02:24:58.535Z,79.00
2023-04-03T02:27:25.301Z,79.00
2023-04-03T02:29:52.036Z,79.10
2023-04-03T02:32:18.720Z,79.10
2023-04-03T02:34:45.655Z,79.20
2023-04-03T02:37:12.735Z,79.20
2023-04-03T02:39:39.451Z,79.40
2023-04-03T02:42:06.278Z,79.40
2023-04-03T02:44:32.981Z,79.50
2023-04-03T02:46:59.680Z,79.60
2023-04-03T02:49:26.356Z,79.60
2023-04-03T02:51:54.340Z,80.50
2023-04-03T02:54:21.837Z,79.80
2023-04-03T02:56:48.536Z,79.90
2023-04-03T02:59:15.396Z,80.00
2023-04-03T03:01:42.151Z,80.00
2023-04-03T03:04:08.918Z,80.10
2023-04-03T03:06:35.752Z,80.20
2023-04-03T03:09:02.590Z,81.10
2023-04-03T03:11:29.314Z,80.30
2023-04-03T03:13:56.165Z,80.40
2023-04-03T03:16:22.949Z,80.40
2023-04-03T03:18:49.713Z,80.50
2023-04-03T03:21:16.568Z,80.60
2023-04-03T03:23:43.294Z,80.60
2023-04-03T03:26:11.965Z,80.80
2023-04-03T03:28:40.066Z,80.80
2023-04-03T03:31:07.532Z,80.90
2023-04-03T03:33:34.783Z,81.00
2023-04-03T03:36:01.752Z,81.00
2023-04-03T03:38:28.470Z,81.10
2023-04-03T03:40:55.227Z,81.10
2023-04-03T03:43:21.973Z,81.30
2023-04-03T03:45:53.452Z,81.30
2023-04-03T03:48:21.360Z,81.40
2023-04-03T03:50:48.610Z,81.50
2023-04-03T03:53:16.030Z,81.50
2023-04-03T03:55:43.223Z,82.30
2023-04-03T03:58:10.412Z,81.60
2023-04-03T04:00:37.507Z,81.70
2023-04-03T04:03:04.574Z,81.70
2023-04-03T04:05:31.511Z,81.80
2023-04-03T04:07:58.284Z,81.90
2023-04-03T04:10:25.030Z,82.00
2023-04-03T04:12:52.397Z,82.00
2023-04-03T04:15:19.663Z,82.10
2023-04-03T04:17:46.394Z,82.20
2023-04-03T04:20:13.325Z,82.20
2023-04-03T04:22:40.188Z,82.40
2023-04-03T04:25:07.472Z,82.50
2023-04-03T04:27:34.387Z,82.50
2023-04-03T04:30:01.957Z,82.50
2023-04-03T04:32:28.678Z,82.70
2023-04-03T04:34:55.785Z,82.60
2023-04-03T04:37:22.485Z,82.60
2023-04-03T04:39:49.166Z,82.70
2023-04-03T04:42:17.796Z,82.80
2023-04-03T04:44:44.665Z,83.00
2023-04-03T04:47:11.438Z,83.10
2023-04-03T04:49:38.216Z,83.10
2023-04-03T04:52:05.246Z,83.10
2023-04-03T04:54:32.046Z,83.20
2023-04-03T04:56:59.210Z,83.30
2023-04-03T04:59:26.144Z,83.40
2023-04-03T05:01:52.838Z,83.50
2023-04-03T05:04:19.684Z,83.60
2023-04-03T05:06:46.452Z,83.80
2023-04-03T05:09:13.345Z,83.80
2023-04-03T05:11:40.379Z,83.90
2023-04-03T05:14:07.627Z,83.90
2023-04-03T05:16:35.071Z,84.00
2023-04-03T05:19:01.883Z,84.00
2023-04-03T05:21:32.944Z,84.00
2023-04-03T05:24:03.443Z,84.10
2023-04-03T05:26:31.439Z,84.20
2023-04-03T05:28:58.672Z,84.20
2023-04-03T05:31:25.479Z,84.30
2023-04-03T05:33:52.371Z,84.40
2023-04-03T05:36:19.257Z,84.40
2023-04-03T05:38:46.476Z,84.50
2023-04-03T05:41:13.704Z,84.60
2023-04-03T05:43:40.639Z,84.70
2023-04-03T05:46:15.750Z,84.70
2023-04-03T05:48:43.388Z,84.80
2023-04-03T05:51:20.464Z,84.80
2023-04-03T05:53:48.546Z,84.90
2023-04-03T05:56:15.914Z,84.90
2023-04-03T05:58:42.642Z,84.90
2023-04-03T06:01:09.466Z,85.90
2023-04-03T06:03:38.623Z,85.10
2023-04-03T06:06:06.905Z,85.20
2023-04-03T06:08:34.643Z,85.20
2023-04-03T06:11:03.160Z,85.30
2023-04-03T06:13:30.415Z,85.30
2023-04-03T06:15:57.849Z,85.30
2023-04-03T06:18:25.085Z,85.40
2023-04-03T06:20:51.822Z,85.40
2023-04-03T06:23:18.762Z,85.50
2023-04-03T06:25:45.459Z,85.60
2023-04-03T06:28:12.214Z,85.60
2023-04-03T06:30:39.393Z,85.70
2023-04-03T06:33:06.483Z,85.70
2023-04-03T06:35:35.917Z,85.60
2023-04-03T06:38:04.964Z,85.70
2023-04-03T06:40:31.804Z,85.70
2023-04-03T06:42:58.563Z,85.70
2023-04-03T06:45:26.553Z,85.70
2023-04-03T06:47:53.380Z,85.80
2023-04-03T06:50:20.776Z,85.70
2023-04-03T06:52:47.539Z,85.70
2023-04-03T06:55:14.375Z,85.60
2023-04-03T06:57:41.245Z,85.50
2023-04-03T07:00:08.591Z,85.50
2023-04-03T07:02:35.656Z,85.40
2023-04-03T07:05:02.752Z,85.40
2023-04-03T07:07:29.679Z,85.20
2023-04-03T07:09:56.377Z,85.20
2023-04-03T07:12:23.114Z,85.20
2023-04-03T07:14:49.886Z,85.10
2023-04-03T07:17:16.664Z,85.00
2023-04-03T07:19:43.473Z,84.90
2023-04-03T07:22:11.979Z,84.80
2023-04-03T07:24:39.041Z,84.80
2023-04-03T07:27:06.556Z,84.70
2023-04-03T07:29:33.377Z,84.50
2023-04-03T07:32:00.115Z,84.50
2023-04-03T07:34:27.056Z,84.30
2023-04-03T07:36:53.876Z,84.20
2023-04-03T07:39:20.600Z,84.10
2023-04-03T07:41:47.305Z,83.90
2023-04-03T07:44:14.222Z,83.70
2023-04-03T07:46:41.921Z,83.60
2023-04-03T07:49:09.069Z,83.30
2023-04-03T07:51:36.220Z,83.20
2023-04-03T07:54:02.993Z,83.20
2023-04-03T07:56:29.962Z,83.00
2023-04-03T07:58:56.882Z,82.80
2023-04-03T08:01:23.754Z,82.60
2023-04-03T08:03:50.799Z,82.40
2023-04-03T08:06:20.000Z,82.10
2023-04-03T08:08:50.743Z,82.00
2023-04-03T08:11:17.411Z,81.90
2023-04-03T08:13:44.268Z,81.50
2023-04-03T08:16:13.546Z,81.40
2023-04-03T08:18:41.081Z,81.30
2023-04-03T08:21:12.337Z,81.10
2023-04-03T08:23:40.479Z,81.00
2023-04-03T08:26:13.432Z,80.80
2023-04-03T08:28:41.472Z,80.50
2023-04-03T08:31:14.951Z,80.10
2023-04-03T08:33:42.236Z,80.00
2023-04-03T08:36:18.580Z,79.90
2023-04-03T08:38:45.529Z,79.60
2023-04-03T08:41:36.754Z,79.20
2023-04-03T08:44:33.147Z,78.90
2023-04-03T08:47:12.605Z,78.40
2023-04-03T08:50:00.849Z,77.90
2023-04-03T08:52:39.131Z,77.70
2023-04-03T08:55:14.371Z,77.50
2023-04-03T08:57:45.371Z,77.30
2023-04-03T09:00:15.101Z,76.70
2023-04-03T09:02:48.805Z,75.80
2023-04-03T09:05:40.411Z,74.80
2023-04-03T09:08:27.443Z,73.60
2023-04-03T09:11:12.699Z,73.00
2023-04-03T09:13:45.751Z,72.40
2023-04-03T09:16:55.687Z,71.60
2023-04-03T09:19:49.781Z,70.90
2023-04-03T09:22:27.829Z,70.90
2023-04-03T09:25:14.207Z,70.80
2023-04-03T09:27:41.325Z,70.20
2023-04-03T09:30:18.183Z,69.90
2023-04-03T09:32:50.887Z,69.50
2023-04-03T09:35:36.464Z,68.90
2023-04-03T09:38:14.277Z,68.40
2023-04-03T09:41:04.398Z,67.40
2023-04-03T09:43:33.260Z,66.90
2023-04-03T09:46:21.065Z,66.40
2023-04-03T09:49:05.069Z,66.10
2023-04-03T09:51:35.523Z,66.10
2023-04-03T09:54:38.179Z,65.60
2023-04-03T09:57:16.002Z,64.40
2023-04-03T10:00:06.875Z,64.90
2023-04-03T10:02:35.695Z,64.50
2023-04-03T10:07:36.166Z,63.50
2023-04-03T10:10:17.451Z,62.90
2023-04-03T10:12:44.461Z,61.10
2023-04-03T10:15:16.925Z,60.40
2023-04-03T10:18:17.880Z,60.20
2023-04-03T10:20:53.075Z,59.40
2023-04-03T10:23:29.411Z,57.90
2023-04-03T10:26:35.381Z,57.90
2023-04-03T10:29:37.534Z,57.30
2023-04-03T10:32:29.260Z,57.10
2023-04-03T10:35:09.126Z,56.60
2023-04-03T10:38:03.762Z,56.60
2023-04-03T10:40:58.596Z,56.10
2023-04-03T10:43:48.756Z,55.90
2023-04-03T10:46:30.597Z,54.50
2023-04-03T10:49:10.286Z,55.30
2023-04-03T10:51:45.229Z,55.00
2023-04-03T10:54:27.558Z,54.60
2023-04-03T10:57:11.943Z,53.70
2023-04-03T11:00:05.473Z,53.60
2023-04-03T11:02:49.885Z,53.50
2023-04-03T11:05:31.997Z,53.40
2023-04-03T11:08:03.905Z,53.30
2023-04-03T11:10:46.558Z,53.00
2023-04-03T11:13:34.089Z,53.30
2023-04-03T11:16:01.332Z,53.30
2023-04-03T11:18:39.130Z,53.00
2023-04-03T11:21:21.053Z,52.20
2023-04-03T11:23:50.124Z,51.60
2023-04-03T11:26:22.027Z,51.90
2023-04-03T11:29:01.610Z,51.90
2023-04-03T11:31:31.175Z,51.80
2023-04-03T11:34:27.123Z,52.40
2023-04-03T11:36:57.589Z,52.40
2023-04-03T11:39:36.954Z,53.10
2023-04-03T11:42:17.421Z,53.30
2023-04-03T11:44:44.348Z,53.30
2023-04-03T11:47:13.213Z,52.40
2023-04-03T11:50:01.492Z,52.90
2023-04-03T11:52:43.777Z,52.30
2023-04-03T11:55:22.708Z,52.20
2023-04-03T11:57:58.727Z,52.00
2023-04-03T12:00:44.354Z,51.90
2023-04-03T12:03:30.087Z,52.30
2023-04-03T12:06:12.539Z,51.90
2023-04-03T12:08:50.945Z,51.90
2023-04-03T12:11:28.043Z,52.40
2023-04-03T12:13:57.899Z,52.20
2023-04-03T12:16:39.721Z,52.70
2023-04-03T12:19:15.906Z,52.50
2023-04-03T12:21:57.875Z,52.80
2023-04-03T12:24:24.608Z,52.30
2023-04-03T12:27:06.128Z,51.70
2023-04-03T12:29:35.991Z,51.20
2023-04-03T12:32:24.386Z,52.30
2023-04-03T12:35:23.286Z,51.30
2023-04-03T12:37:59.219Z,51.50
2023-04-03T12:40:44.069Z,51.10
2023-04-03T12:43:29.356Z,51.40
2023-04-03T12:46:19.300Z,51.50
2023-04-03T12:48:46.296Z,51.10
2023-04-03T12:51:20.672Z,51.30
2023-04-03T12:53:47.997Z,51.10
2023-04-03T12:56:33.754Z,50.80
2023-04-03T12:59:22.009Z,50.50
2023-04-03T13:02:00.890Z,50.30
2023-04-03T13:04:33.158Z,50.20
2023-04-03T13:07:00.471Z,50.60
2023-04-03T13:09:30.091Z,50.30
2023-04-03T13:12:04.052Z,49.80
2023-04-03T13:14:32.007Z,49.40
2023-04-03T13:17:03.711Z,49.80
2023-04-03T13:19:31.429Z,49.30
2023-04-03T13:22:03.915Z,49.20
2023-04-03T13:24:33.663Z,49.10
2023-04-03T13:27:00.820Z,49.40
2023-04-03T13:29:33.732Z,49.70
2023-04-03T13:32:01.877Z,50.40
2023-04-03T13:34:36.260Z,49.80
2023-04-03T13:37:05.344Z,49.80
2023-04-03T13:39:39.128Z,50.00
2023-04-03T13:42:27.874Z,50.20
2023-04-03T13:45:21.885Z,50.00
2023-04-03T13:47:49.871Z,49.10
2023-04-03T13:50:20.661Z,50.00
2023-04-03T13:52:52.628Z,49.90
2023-04-03T13:55:26.522Z,50.00
2023-04-03T13:58:02.054Z,50.30
2023-04-03T14:00:35.000Z,50.60
2023-04-03T14:03:02.274Z,50.80
2023-04-03T14:05:29.054Z,50.90
2023-04-03T14:07:56.373Z,50.30
2023-04-03T14:10:23.759Z,49.00
2023-04-03T14:12:52.095Z,48.50
2023-04-03T14:15:28.348Z,48.60
2023-04-03T14:17:56.398Z,47.80
2023-04-03T14:20:26.687Z,47.40
2023-04-03T14:22:54.711Z,46.50
2023-04-03T14:25:23.478Z,47.20
2023-04-03T14:27:52.370Z,46.50
2023-04-03T14:30:28.908Z,47.10
2023-04-03T14:32:56.023Z,47.20
2023-04-03T14:35:23.707Z,46.20
2023-04-03T14:37:51.653Z,45.70
2023-04-03T14:40:27.707Z,45.10
2023-04-03T14:42:56.489Z,45.00
2023-04-03T14:45:24.429Z,45.40
2023-04-03T14:47:56.840Z,45.10
2023-04-03T14:50:26.852Z,45.30
2023-04-03T14:52:56.743Z,44.60
2023-04-03T14:55:26.346Z,44.50
2023-04-03T14:57:53.778Z,44.70
2023-04-03T15:00:22.775Z,44.00
2023-04-03T15:02:50.370Z,44.10
2023-04-03T15:05:17.734Z,43.90
2023-04-03T15:07:50.408Z,43.30
2023-04-03T15:10:28.763Z,43.80
2023-04-03T15:12:56.752Z,43.00
2023-04-03T15:15:25.036Z,43.10
2023-04-03T15:17:55.413Z,43.10
2023-04-03T15:20:25.833Z,43.40
2023-04-03T15:22:53.021Z,42.90
2023-04-03T15:25:19.954Z,42.90
2023-04-03T15:27:46.764Z,43.00
2023-04-03T15:30:19.626Z,43.40
2023-04-03T15:32:47.041Z,43.30
2023-04-03T15:35:14.076Z,43.70
2023-04-03T15:37:40.956Z,43.20
2023-04-03T15:40:08.269Z,43.10
2023-04-03T15:42:35.410Z,43.10
2023-04-03T15:45:02.396Z,42.80
2023-04-03T15:47:29.399Z,43.80
2023-04-03T15:49:56.546Z,44.00
2023-04-03T15:52:23.420Z,43.10
2023-04-03T15:54:50.340Z,42.50
2023-04-03T15:57:17.356Z,42.50
2023-04-03T15:59:44.260Z,43.90
2023-04-03T16:02:13.729Z,42.70
2023-04-03T16:04:41.362Z,43.20
2023-04-03T16:07:08.296Z,42.70
2023-04-03T16:09:36.395Z,42.30
2023-04-03T16:12:03.706Z,42.90
2023-04-03T16:14:31.329Z,42.40
2023-04-03T16:17:00.091Z,42.00
2023-04-03T16:19:26.878Z,42.50
2023-04-03T16:21:55.477Z,43.10
2023-04-03T16:24:22.285Z,43.30
2023-04-03T16:26:49.428Z,43.40
2023-04-03T16:29:16.230Z,42.70
2023-04-03T16:31:43.134Z,42.50
2023-04-03T16:34:09.896Z,41.80
2023-04-03T16:36:38.466Z,42.60
2023-04-03T16:39:05.613Z,42.90
2023-04-03T16:41:33.118Z,43.30
2023-04-03T16:43:59.932Z,43.50
2023-04-03T16:46:26.823Z,43.70
2023-04-03T16:48:53.694Z,43.10
2023-04-03T16:51:20.509Z,43.60
2023-04-03T16:53:47.237Z,43.80
2023-04-03T16:56:14.033Z,44.40
2023-04-03T16:58:40.792Z,44.50
2023-04-03T17:01:25.917Z,44.20
2023-04-03T17:03:52.770Z,43.00
2023-04-03T17:06:22.018Z,43.30
2023-04-03T17:08:50.478Z,43.40
2023-04-03T17:11:18.296Z,43.00
2023-04-03T17:13:45.074Z,42.70
2023-04-03T17:16:15.716Z,42.40
2023-04-03T17:18:43.318Z,41.70
2023-04-03T17:21:10.328Z,42.10
2023-04-03T17:23:38.993Z,41.80
2023-04-03T17:26:06.204Z,42.10
2023-04-03T17:28:33.084Z,42.80
2023-04-03T17:31:02.017Z,43.20
2023-04-03T17:33:31.230Z,43.50
2023-04-03T17:35:59.541Z,44.00
2023-04-03T17:38:27.481Z,44.30
2023-04-03T17:40:58.850Z,44.80
2023-04-03T17:43:26.264Z,45.30
2023-04-03T17:45:53.351Z,46.70
2023-04-03T17:48:20.476Z,45.80
2023-04-03T17:50:47.304Z,46.00
2023-04-03T17:53:15.188Z,46.10
2023-04-03T17:55:41.902Z,46.30
2023-04-03T17:58:08.705Z,46.40
2023-04-03T18:00:37.299Z,46.80
2023-04-03T18:03:05.218Z,47.20
2023-04-03T18:05:32.328Z,47.70
2023-04-03T18:08:01.298Z,48.20
2023-04-03T18:10:28.271Z,48.30
2023-04-03T18:12:55.872Z,48.30
2023-04-03T18:15:25.001Z,48.80
2023-04-03T18:17:56.463Z,48.90
2023-04-03T18:20:24.396Z,48.80
2023-04-03T18:22:52.532Z,49.20
2023-04-03T18:25:19.803Z,50.00
2023-04-03T18:27:47.143Z,49.60
2023-04-03T18:30:16.632Z,50.00
2023-04-03T18:32:43.731Z,50.10
2023-04-03T18:35:11.601Z,50.30
2023-04-03T18:37:38.471Z,50.50
2023-04-03T18:40:05.939Z,51.00
2023-04-03T18:42:32.806Z,51.00
2023-04-03T18:45:03.472Z,51.50
2023-04-03T18:47:30.896Z,51.50
2023-04-03T18:49:58.872Z,51.80
2023-04-03T18:52:26.083Z,52.00
2023-04-03T18:54:53.014Z,52.30
2023-04-03T18:57:19.912Z,52.60
2023-04-03T18:59:46.736Z,52.90
2023-04-03T19:02:15.060Z,53.20
2023-04-03T19:04:43.679Z,53.30
2023-04-03T19:07:10.859Z,54.60
2023-04-03T19:09:38.734Z,53.70
2023-04-03T19:12:06.950Z,53.90
2023-04-03T19:14:33.876Z,54.40
2023-04-03T19:17:02.305Z,54.50
2023-04-03T19:19:29.227Z,54.70
2023-04-03T19:21:56.241Z,55.00
2023-04-03T19:24:23.018Z,55.10
2023-04-03T19:26:50.029Z,55.40
2023-04-03T19:29:17.793Z,55.80
2023-04-03T19:31:44.601Z,56.10
2023-04-03T19:34:11.520Z,56.40
2023-04-03T19:36:38.382Z,56.60
2023-04-03T19:39:06.040Z,57.00
2023-04-03T19:41:35.175Z,57.40
2023-04-03T19:44:03.520Z,57.60
2023-04-03T19:46:30.870Z,57.90
2023-04-03T19:48:57.851Z,58.30
2023-04-03T19:51:24.787Z,58.50
2023-04-03T19:53:51.943Z,58.80
2023-04-03T19:56:21.406Z,59.30
2023-04-03T19:58:54.169Z,59.50
2023-04-03T20:01:24.271Z,59.90
2023-04-03T20:03:51.807Z,60.20
2023-04-03T20:06:19.054Z,60.40
2023-04-03T20:08:46.287Z,60.60
2023-04-03T20:11:13.009Z,61.70
2023-04-03T20:13:40.099Z,61.20
2023-04-03T20:16:07.678Z,61.40
2023-04-03T20:18:35.355Z,61.50
2023-04-03T20:21:04.679Z,61.60
2023-04-03T20:23:31.725Z,61.70
2023-04-03T20:26:09.315Z,61.80
2023-04-03T20:28:38.078Z,62.00
2023-04-03T20:31:06.583Z,62.10
2023-04-03T20:33:33.866Z,62.30
2023-04-03T20:36:01.572Z,62.50
2023-04-03T20:38:28.641Z,63.60
2023-04-03T20:40:55.692Z,62.90
2023-04-03T20:43:23.355Z,63.90
2023-04-03T20:45:50.961Z,63.30
2023-04-03T20:48:18.387Z,63.40
2023-04-03T20:50:45.834Z,63.60
2023-04-03T20:53:13.430Z,63.70
2023-04-03T20:55:41.228Z,64.00
2023-04-03T20:58:08.639Z,64.20
2023-04-03T21:00:37.525Z,64.40
2023-04-03T21:03:04.568Z,64.60
2023-04-03T21:05:34.567Z,64.80
2023-04-03T21:08:40.128Z,65.00
2023-04-03T21:11:44.912Z,65.10
2023-04-03T21:14:49.553Z,65.30
2023-04-03T21:17:16.391Z,65.50
2023-04-03T21:19:46.556Z,65.70
2023-04-03T21:22:16.163Z,65.90
2023-04-03T21:24:44.175Z,66.00
2023-04-03T21:27:11.445Z,66.10
2023-04-03T21:29:38.686Z,66.30
2023-04-03T21:32:05.781Z,66.30
2023-04-03T21:34:33.138Z,66.50
2023-04-03T21:37:05.474Z,66.60
2023-04-03T21:39:33.162Z,66.90
2023-04-03T21:42:00.224Z,67.00
2023-04-03T21:44:28.298Z,67.10
2023-04-03T21:46:55.291Z,67.10
2023-04-03T21:49:23.151Z,67.20
2023-04-03T21:51:51.719Z,67.30
2023-04-03T21:54:19.076Z,67.40
2023-04-03T21:56:47.964Z,67.50
2023-04-03T21:59:15.816Z,67.50
2023-04-03T22:01:43.050Z,67.70
2023-04-03T22:04:09.889Z,67.80
2023-04-03T22:06:37.885Z,67.90
2023-04-03T22:09:05.079Z,68.10
2023-04-03T22:11:32.334Z,68.20
2023-04-03T22:13:59.825Z,68.20
2023-04-03T22:16:27.424Z,68.40
2023-04-03T22:18:54.930Z,68.40
2023-04-03T22:21:22.165Z,68.60
2023-04-03T22:23:49.308Z,68.60
2023-04-03T22:26:16.489Z,68.70
2023-04-03T22:28:45.434Z,68.90
2023-04-03T22:31:16.329Z,68.90
2023-04-03T22:33:44.790Z,69.10
2023-04-03T22:36:13.200Z,69.20
2023-04-03T22:38:43.380Z,69.40
2023-04-03T22:41:10.656Z,69.40
2023-04-03T22:43:38.172Z,69.50
2023-04-03T22:46:07.514Z,69.50
2023-04-03T22:48:34.604Z,69.70
2023-04-03T22:51:01.588Z,69.70
2023-04-03T22:53:28.783Z,70.00
2023-04-03T22:55:55.671Z,70.00
2023-04-03T22:58:25.832Z,70.00
2023-04-03T23:01:04.089Z,70.10
2023-04-03T23:03:30.907Z,70.40
2023-04-03T23:05:57.645Z,70.50
2023-04-03T23:08:24.470Z,70.60
2023-04-03T23:10:55.682Z,70.70
2023-04-03T23:13:23.447Z,70.80
2023-04-03T23:15:57.758Z,70.80
2023-04-03T23:18:25.455Z,71.00
2023-04-03T23:20:52.233Z,71.20
2023-04-03T23:23:19.211Z,71.20
2023-04-03T23:25:47.912Z,71.20
2023-04-03T23:28:14.841Z,71.30
2023-04-03T23:30:43.102Z,71.40
2023-04-03T23:33:09.841Z,71.50
2023-04-03T23:35:43.295Z,71.60
2023-04-03T23:38:09.998Z,71.70
2023-04-03T23:40:36.749Z,71.80
2023-04-03T23:43:03.473Z,71.90
2023-04-03T23:45:30.247Z,72.00
2023-04-03T23:47:56.998Z,72.00
2023-04-03T23:50:23.839Z,72.10
2023-04-03T23:52:50.542Z,72.10
2023-04-03T23:55:17.297Z,72.20
2023-04-03T23:57:44.276Z,72.20
